sensor_id;sensor_type;location;lat;lon;timestamp;pressure;altitude;pressure_sealevel;temperature;humidity
54038;BME280;39954;48.844;9.726;2023-09-18T00:00:30;95571.91;;;17.16;100.00
54038;BME280;39954;48.844;9.726;2023-09-18T00:01:32;95574.53;;;17.26;100.00
54038;BME280;39954;48.844;9.726;2023-09-18T00:02:37;95577.97;;;17.27;100.00
54038;BME280;39954;48.844;9.726;2023-09-18T00:03:40;95571.22;;;17.24;100.00
54038;BME280;39954;48.844;9.726;2023-09-18T00:04:44;95570.38;;;17.23;100.00
54038;BME280;39954;48.844;9.726;2023-09-18T00:05:47;95574.94;;;17.31;100.00
54038;BME280;39954;48.844;9.726;2023-09-18T00:06:52;95570.78;;;17.29;100.00
54038;BME280;39954;48.844;9.726;2023-09-18T00:07:54;95570.94;;;17.27;100.00
54038;BME280;39954;48.844;9.726;2023-09-18T00:08:59;95565.97;;;17.24;100.00
54038;BME280;39954;48.844;9.726;2023-09-18T00:10:02;95568.59;;;17.24;100.00
54038;BME280;39954;48.844;9.726;2023-09-18T00:11:04;95565.13;;;17.23;100.00
54038;BME280;39954;48.844;9.726;2023-09-18T00:12:09;95568.75;;;17.22;100.00
54038;BME280;39954;48.844;9.726;2023-09-18T00:13:14;95568.88;;;17.21;100.00
54038;BME280;39954;48.844;9.726;2023-09-18T00:14:19;95563.75;;;17.19;100.00
54038;BME280;39954;48.844;9.726;2023-09-18T00:15:21;95571.63;;;17.19;100.00
54038;BME280;39954;48.844;9.726;2023-09-18T00:16:27;95569.28;;;17.16;100.00
54038;BME280;39954;48.844;9.726;2023-09-18T00:17:29;95556.59;;;17.12;100.00
54038;BME280;39954;48.844;9.726;2023-09-18T00:18:34;95555.88;;;17.10;100.00
54038;BME280;39954;48.844;9.726;2023-09-18T00:19:36;95559.63;;;17.07;100.00
54038;BME280;39954;48.844;9.726;2023-09-18T00:20:42;95568.75;;;17.03;100.00
54038;BME280;39954;48.844;9.726;2023-09-18T00:21:44;95560.19;;;17.01;100.00
54038;BME280;39954;48.844;9.726;2023-09-18T00:22:49;95563.78;;;17.00;100.00
54038;BME280;39954;48.844;9.726;2023-09-18T00:23:51;95558.78;;;16.97;100.00
54038;BME280;39954;48.844;9.726;2023-09-18T00:24:56;95557.84;;;16.98;100.00
54038;BME280;39954;48.844;9.726;2023-09-18T00:25:58;95556.16;;;16.97;100.00
54038;BME280;39954;48.844;9.726;2023-09-18T00:27:01;95559.78;;;16.96;100.00
54038;BME280;39954;48.844;9.726;2023-09-18T00:28:05;95557.97;;;16.96;100.00
54038;BME280;39954;48.844;9.726;2023-09-18T00:29:10;95560.75;;;16.95;100.00
54038;BME280;39954;48.844;9.726;2023-09-18T00:30:15;95552.19;;;16.93;100.00
54038;BME280;39954;48.844;9.726;2023-09-18T00:31:18;95556.31;;;16.95;100.00
54038;BME280;39954;48.844;9.726;2023-09-18T00:32:24;95556.44;;;16.94;100.00
54038;BME280;39954;48.844;9.726;2023-09-18T00:33:26;95553.81;;;16.94;100.00
54038;BME280;39954;48.844;9.726;2023-09-18T00:34:31;95554.69;;;16.94;100.00
54038;BME280;39954;48.844;9.726;2023-09-18T00:35:33;95552.06;;;16.94;100.00
54038;BME280;39954;48.844;9.726;2023-09-18T00:36:36;95548.56;;;16.94;100.00
54038;BME280;39954;48.844;9.726;2023-09-18T00:37:40;95551.06;;;16.95;100.00
54038;BME280;39954;48.844;9.726;2023-09-18T00:38:43;95549.44;;;16.94;100.00
54038;BME280;39954;48.844;9.726;2023-09-18T00:39:49;95552.19;;;16.93;100.00
54038;BME280;39954;48.844;9.726;2023-09-18T00:40:51;95554.09;;;16.91;100.00
54038;BME280;39954;48.844;9.726;2023-09-18T00:41:57;95555.09;;;16.90;100.00
54038;BME280;39954;48.844;9.726;2023-09-18T00:43:00;95554.38;;;16.88;100.00
54038;BME280;39954;48.844;9.726;2023-09-18T00:44:05;95551.06;;;16.86;100.00
54038;BME280;39954;48.844;9.726;2023-09-18T00:45:10;95547.63;;;16.85;100.00
54038;BME280;39954;48.844;9.726;2023-09-18T00:46:15;95533.94;;;16.82;100.00
54038;BME280;39954;48.844;9.726;2023-09-18T00:47:17;95537.56;;;16.81;100.00
54038;BME280;39954;48.844;9.726;2023-09-18T00:48:24;95524.69;;;16.77;100.00
54038;BME280;39954;48.844;9.726;2023-09-18T00:49:27;95532.81;;;16.74;100.00
54038;BME280;39954;48.844;9.726;2023-09-18T00:50:32;95526.19;;;16.70;100.00
54038;BME280;39954;48.844;9.726;2023-09-18T00:51:35;95523.84;;;16.67;100.00
54038;BME280;39954;48.844;9.726;2023-09-18T00:52:40;95524.25;;;16.63;100.00
54038;BME280;39954;48.844;9.726;2023-09-18T00:53:43;95517.63;;;16.59;100.00
54038;BME280;39954;48.844;9.726;2023-09-18T00:54:50;95518.19;;;16.52;100.00
54038;BME280;39954;48.844;9.726;2023-09-18T00:55:55;95515.69;;;16.51;100.00
54038;BME280;39954;48.844;9.726;2023-09-18T00:57:03;95511.69;;;16.47;100.00
54038;BME280;39954;48.844;9.726;2023-09-18T00:58:06;95523.41;;;16.43;100.00
54038;BME280;39954;48.844;9.726;2023-09-18T00:59:12;95516.81;;;16.39;100.00
54038;BME280;39954;48.844;9.726;2023-09-18T01:00:17;95521.47;;;16.35;100.00
54038;BME280;39954;48.844;9.726;2023-09-18T01:01:22;95520.09;;;16.31;100.00
54038;BME280;39954;48.844;9.726;2023-09-18T01:02:25;95513.31;;;16.28;100.00
54038;BME280;39954;48.844;9.726;2023-09-18T01:03:30;95520.66;;;16.25;100.00
54038;BME280;39954;48.844;9.726;2023-09-18T01:04:33;95513.72;;;16.24;100.00
54038;BME280;39954;48.844;9.726;2023-09-18T01:05:38;95511.38;;;16.21;100.00
54038;BME280;39954;48.844;9.726;2023-09-18T01:06:43;95511.53;;;16.19;100.00
54038;BME280;39954;48.844;9.726;2023-09-18T01:07:45;95512.34;;;16.20;100.00
54038;BME280;39954;48.844;9.726;2023-09-18T01:08:50;95510.66;;;16.19;100.00
54038;BME280;39954;48.844;9.726;2023-09-18T01:09:55;95511.53;;;16.19;100.00
54038;BME280;39954;48.844;9.726;2023-09-18T01:11:04;95507.22;;;16.18;100.00
54038;BME280;39954;48.844;9.726;2023-09-18T01:12:16;95509.84;;;16.18;100.00
54038;BME280;39954;48.844;9.726;2023-09-18T01:13:27;95514.16;;;16.19;100.00
54038;BME280;39954;48.844;9.726;2023-09-18T01:14:37;95514.41;;;16.16;100.00
54038;BME280;39954;48.844;9.726;2023-09-18T01:15:50;95515.25;;;16.17;100.00
54038;BME280;39954;48.844;9.726;2023-09-18T01:16:56;95517.97;;;16.15;100.00
54038;BME280;39954;48.844;9.726;2023-09-18T01:18:04;95524.91;;;16.16;100.00
54038;BME280;39954;48.844;9.726;2023-09-18T01:19:06;95520.59;;;16.15;100.00
54038;BME280;39954;48.844;9.726;2023-09-18T01:20:12;95520.50;;;16.17;100.00
54038;BME280;39954;48.844;9.726;2023-09-18T01:21:14;95516.19;;;16.16;100.00
54038;BME280;39954;48.844;9.726;2023-09-18T01:22:19;95513.56;;;16.16;100.00
54038;BME280;39954;48.844;9.726;2023-09-18T01:23:26;95514.53;;;16.15;100.00
54038;BME280;39954;48.844;9.726;2023-09-18T01:24:31;95511.81;;;16.16;100.00
54038;BME280;39954;48.844;9.726;2023-09-18T01:25:33;95511.38;;;16.21;100.00
54038;BME280;39954;48.844;9.726;2023-09-18T01:26:38;95511.38;;;16.21;100.00
54038;BME280;39954;48.844;9.726;2023-09-18T01:27:41;95511.53;;;16.19;100.00
54038;BME280;39954;48.844;9.726;2023-09-18T01:28:45;95508.91;;;16.19;100.00
54038;BME280;39954;48.844;9.726;2023-09-18T01:29:48;95504.59;;;16.18;100.00
54038;BME280;39954;48.844;9.726;2023-09-18T01:30:55;95506.41;;;16.18;100.00
54038;BME280;39954;48.844;9.726;2023-09-18T01:31:59;95502.97;;;16.17;100.00
54038;BME280;39954;48.844;9.726;2023-09-18T01:33:04;95502.69;;;16.20;100.00
54038;BME280;39954;48.844;9.726;2023-09-18T01:34:06;95494.13;;;16.18;100.00
54038;BME280;39954;48.844;9.726;2023-09-18T01:35:12;95501.72;;;16.21;100.00
54038;BME280;39954;48.844;9.726;2023-09-18T01:36:16;95499.78;;;16.23;100.00
54038;BME280;39954;48.844;9.726;2023-09-18T01:37:21;95506.56;;;16.26;100.00
54038;BME280;39954;48.844;9.726;2023-09-18T01:38:30;95507.69;;;16.33;100.00
54038;BME280;39954;48.844;9.726;2023-09-18T01:39:34;95499.53;;;16.36;100.00
54038;BME280;39954;48.844;9.726;2023-09-18T01:40:39;95492.50;;;16.37;100.00
54038;BME280;39954;48.844;9.726;2023-09-18T01:41:42;95499.25;;;16.39;100.00
54038;BME280;39954;48.844;9.726;2023-09-18T01:42:47;95495.53;;;16.42;100.00
54038;BME280;39954;48.844;9.726;2023-09-18T01:43:50;95497.72;;;16.46;100.00
54038;BME280;39954;48.844;9.726;2023-09-18T01:44:55;95490.44;;;16.50;100.00
54038;BME280;39954;48.844;9.726;2023-09-18T01:45:57;95490.16;;;16.53;100.00
54038;BME280;39954;48.844;9.726;2023-09-18T01:47:03;95491.94;;;16.62;100.00
54038;BME280;39954;48.844;9.726;2023-09-18T01:48:06;95491.66;;;16.65;100.00
54038;BME280;39954;48.844;9.726;2023-09-18T01:49:11;95499.97;;;16.70;100.00
54038;BME280;39954;48.844;9.726;2023-09-18T01:50:13;95490.81;;;16.74;100.00
54038;BME280;39954;48.844;9.726;2023-09-18T01:51:18;95486.84;;;16.90;100.00
54038;BME280;39954;48.844;9.726;2023-09-18T01:52:21;95484.59;;;17.05;100.00
54038;BME280;39954;48.844;9.726;2023-09-18T01:53:23;95473.66;;;17.19;100.00
54038;BME280;39954;48.844;9.726;2023-09-18T01:54:31;95484.44;;;17.26;100.00
54038;BME280;39954;48.844;9.726;2023-09-18T01:55:34;95483.16;;;17.30;100.00
54038;BME280;39954;48.844;9.726;2023-09-18T01:56:40;95479.97;;;17.36;100.00
54038;BME280;39954;48.844;9.726;2023-09-18T01:57:43;95478.00;;;17.48;100.00
54038;BME280;39954;48.844;9.726;2023-09-18T01:58:50;95475.75;;;17.53;100.00
54038;BME280;39954;48.844;9.726;2023-09-18T01:59:53;95477.94;;;17.57;100.00
54038;BME280;39954;48.844;9.726;2023-09-18T02:01:00;95478.34;;;17.62;100.00
54038;BME280;39954;48.844;9.726;2023-09-18T02:02:05;95488.66;;;17.74;100.00
54038;BME280;39954;48.844;9.726;2023-09-18T02:03:22;95479.25;;;17.81;100.00
54038;BME280;39954;48.844;9.726;2023-09-18T02:04:44;95470.59;;;17.98;100.00
54038;BME280;39954;48.844;9.726;2023-09-18T02:06:10;95473.59;;;18.03;100.00
54038;BME280;39954;48.844;9.726;2023-09-18T02:07:12;95482.97;;;18.06;100.00
54038;BME280;39954;48.844;9.726;2023-09-18T02:08:21;95479.41;;;18.07;100.00
54038;BME280;39954;48.844;9.726;2023-09-18T02:09:23;95483.53;;;18.09;100.00
54038;BME280;39954;48.844;9.726;2023-09-18T02:10:31;95487.66;;;18.12;100.00
54038;BME280;39954;48.844;9.726;2023-09-18T02:11:34;95496.16;;;18.24;100.00
54038;BME280;39954;48.844;9.726;2023-09-18T02:12:39;95491.44;;;18.27;100.00
54038;BME280;39954;48.844;9.726;2023-09-18T02:13:41;95493.84;;;18.39;100.00
54038;BME280;39954;48.844;9.726;2023-09-18T02:14:47;95498.13;;;18.40;100.00
54038;BME280;39954;48.844;9.726;2023-09-18T02:15:50;95497.97;;;18.41;100.00
54038;BME280;39954;48.844;9.726;2023-09-18T02:16:54;95490.84;;;18.51;100.00
54038;BME280;39954;48.844;9.726;2023-09-18T02:17:57;95497.91;;;18.51;100.00
54038;BME280;39954;48.844;9.726;2023-09-18T02:18:59;95502.97;;;18.80;100.00
54038;BME280;39954;48.844;9.726;2023-09-18T02:20:06;95512.72;;;19.06;100.00
54038;BME280;39954;48.844;9.726;2023-09-18T02:21:18;95520.78;;;19.30;100.00
54038;BME280;39954;48.844;9.726;2023-09-18T02:22:24;95530.91;;;19.43;100.00
54038;BME280;39954;48.844;9.726;2023-09-18T02:23:26;95542.25;;;19.43;100.00
54038;BME280;39954;48.844;9.726;2023-09-18T02:24:31;95561.25;;;19.47;100.00
54038;BME280;39954;48.844;9.726;2023-09-18T02:25:36;95566.03;;;19.52;100.00
54038;BME280;39954;48.844;9.726;2023-09-18T02:26:42;95559.19;;;19.59;100.00
54038;BME280;39954;48.844;9.726;2023-09-18T02:27:45;95545.38;;;19.65;100.00
54038;BME280;39954;48.844;9.726;2023-09-18T02:28:52;95540.63;;;19.68;100.00
54038;BME280;39954;48.844;9.726;2023-09-18T02:29:55;95517.38;;;19.64;100.00
54038;BME280;39954;48.844;9.726;2023-09-18T02:31:00;95527.63;;;19.67;100.00
54038;BME280;39954;48.844;9.726;2023-09-18T02:32:02;95528.03;;;19.80;100.00
54038;BME280;39954;48.844;9.726;2023-09-18T02:33:08;95522.44;;;19.83;100.00
54038;BME280;39954;48.844;9.726;2023-09-18T02:34:10;95518.50;;;19.87;100.00
54038;BME280;39954;48.844;9.726;2023-09-18T02:35:15;95507.28;;;19.85;100.00
54038;BME280;39954;48.844;9.726;2023-09-18T02:36:18;95506.38;;;20.03;100.00
54038;BME280;39954;48.844;9.726;2023-09-18T02:37:22;95511.97;;;20.08;100.00
54038;BME280;39954;48.844;9.726;2023-09-18T02:38:26;95501.91;;;20.03;100.00
54038;BME280;39954;48.844;9.726;2023-09-18T02:39:31;95501.56;;;19.98;100.00
54038;BME280;39954;48.844;9.726;2023-09-18T02:40:37;95483.53;;;19.85;100.00
54038;BME280;39954;48.844;9.726;2023-09-18T02:41:42;95479.72;;;19.80;100.00
54038;BME280;39954;48.844;9.726;2023-09-18T02:42:44;95475.91;;;19.74;100.00
54038;BME280;39954;48.844;9.726;2023-09-18T02:43:49;95475.28;;;19.72;100.00
54038;BME280;39954;48.844;9.726;2023-09-18T02:44:51;95478.88;;;19.71;100.00
54038;BME280;39954;48.844;9.726;2023-09-18T02:45:56;95483.31;;;19.71;100.00
54038;BME280;39954;48.844;9.726;2023-09-18T02:46:59;95484.47;;;19.68;100.00
54038;BME280;39954;48.844;9.726;2023-09-18T02:48:04;95482.75;;;19.59;100.00
54038;BME280;39954;48.844;9.726;2023-09-18T02:49:07;95480.56;;;19.54;100.00
54038;BME280;39954;48.844;9.726;2023-09-18T02:50:12;95485.34;;;19.51;100.00
54038;BME280;39954;48.844;9.726;2023-09-18T02:51:14;95485.81;;;19.46;100.00
54038;BME280;39954;48.844;9.726;2023-09-18T02:52:19;95471.81;;;19.45;100.00
54038;BME280;39954;48.844;9.726;2023-09-18T02:53:22;95467.84;;;19.41;100.00
54038;BME280;39954;48.844;9.726;2023-09-18T02:54:28;95452.34;;;19.38;100.00
54038;BME280;39954;48.844;9.726;2023-09-18T02:55:30;95441.47;;;19.33;100.00
54038;BME280;39954;48.844;9.726;2023-09-18T02:56:37;95426.28;;;19.27;100.00
54038;BME280;39954;48.844;9.726;2023-09-18T02:57:40;95429.50;;;19.21;100.00
54038;BME280;39954;48.844;9.726;2023-09-18T02:58:42;95425.56;;;19.17;100.00
54038;BME280;39954;48.844;9.726;2023-09-18T02:59:47;95424.81;;;19.07;100.00
54038;BME280;39954;48.844;9.726;2023-09-18T03:00:50;95426.13;;;19.03;100.00
54038;BME280;39954;48.844;9.726;2023-09-18T03:01:55;95432.47;;;18.92;100.00
54038;BME280;39954;48.844;9.726;2023-09-18T03:02:57;95422.06;;;18.82;100.00
54038;BME280;39954;48.844;9.726;2023-09-18T03:04:03;95426.94;;;18.77;100.00
54038;BME280;39954;48.844;9.726;2023-09-18T03:05:06;95418.16;;;18.68;100.00
54038;BME280;39954;48.844;9.726;2023-09-18T03:06:12;95436.03;;;18.65;100.00
54038;BME280;39954;48.844;9.726;2023-09-18T03:07:15;95445.06;;;18.44;100.00
54038;BME280;39954;48.844;9.726;2023-09-18T03:08:20;95437.63;;;18.40;100.00
54038;BME280;39954;48.844;9.726;2023-09-18T03:09:22;95449.22;;;18.47;100.00
54038;BME280;39954;48.844;9.726;2023-09-18T03:10:27;95434.94;;;18.49;100.00
54038;BME280;39954;48.844;9.726;2023-09-18T03:11:31;95441.44;;;18.45;100.00
54038;BME280;39954;48.844;9.726;2023-09-18T03:12:39;95441.38;;;18.37;100.00
54038;BME280;39954;48.844;9.726;2023-09-18T03:13:43;95442.38;;;18.36;100.00
54038;BME280;39954;48.844;9.726;2023-09-18T03:14:49;95443.78;;;18.30;100.00
54038;BME280;39954;48.844;9.726;2023-09-18T03:15:52;95434.56;;;18.26;100.00
54038;BME280;39954;48.844;9.726;2023-09-18T03:16:54;95438.31;;;18.24;100.00
54038;BME280;39954;48.844;9.726;2023-09-18T03:17:59;95443.88;;;18.21;100.00
54038;BME280;39954;48.844;9.726;2023-09-18T03:19:02;95444.44;;;18.15;100.00
54038;BME280;39954;48.844;9.726;2023-09-18T03:20:08;95436.72;;;18.13;100.00
54038;BME280;39954;48.844;9.726;2023-09-18T03:21:11;95438.53;;;18.13;100.00
54038;BME280;39954;48.844;9.726;2023-09-18T03:22:16;95438.84;;;18.09;100.00
54038;BME280;39954;48.844;9.726;2023-09-18T03:23:18;95438.97;;;18.08;100.00
54038;BME280;39954;48.844;9.726;2023-09-18T03:24:23;95442.03;;;18.03;100.00
54038;BME280;39954;48.844;9.726;2023-09-18T03:25:26;95444.84;;;18.02;100.00
54038;BME280;39954;48.844;9.726;2023-09-18T03:26:30;95442.34;;;18.00;100.00
54038;BME280;39954;48.844;9.726;2023-09-18T03:27:35;95444.44;;;17.97;100.00
54038;BME280;39954;48.844;9.726;2023-09-18T03:28:40;95448.19;;;17.94;100.00
54038;BME280;39954;48.844;9.726;2023-09-18T03:29:44;95442.63;;;17.97;100.00
54038;BME280;39954;48.844;9.726;2023-09-18T03:30:47;95441.28;;;17.93;100.00
54038;BME280;39954;48.844;9.726;2023-09-18T03:31:49;95445.94;;;17.99;100.00
54038;BME280;39954;48.844;9.726;2023-09-18T03:32:54;95446.47;;;18.03;100.00
54038;BME280;39954;48.844;9.726;2023-09-18T03:33:56;95447.88;;;17.97;100.00
54038;BME280;39954;48.844;9.726;2023-09-18T03:35:04;95454.44;;;17.93;100.00
54038;BME280;39954;48.844;9.726;2023-09-18T03:36:06;95457.78;;;17.85;100.00
54038;BME280;39954;48.844;9.726;2023-09-18T03:37:13;95454.34;;;17.85;100.00
54038;BME280;39954;48.844;9.726;2023-09-18T03:38:15;95450.19;;;17.82;100.00
54038;BME280;39954;48.844;9.726;2023-09-18T03:39:18;95459.34;;;17.78;100.00
54038;BME280;39954;48.844;9.726;2023-09-18T03:40:24;95459.25;;;17.70;100.00
54038;BME280;39954;48.844;9.726;2023-09-18T03:41:27;95460.78;;;17.63;100.00
54038;BME280;39954;48.844;9.726;2023-09-18T03:42:36;95452.50;;;17.58;100.00
54038;BME280;39954;48.844;9.726;2023-09-18T03:43:41;95458.06;;;17.55;100.00
54038;BME280;39954;48.844;9.726;2023-09-18T03:44:46;95459.47;;;17.49;100.00
54038;BME280;39954;48.844;9.726;2023-09-18T03:45:49;95461.41;;;17.47;100.00
54038;BME280;39954;48.844;9.726;2023-09-18T03:46:51;95463.31;;;17.55;100.00
54038;BME280;39954;48.844;9.726;2023-09-18T03:47:56;95463.59;;;17.52;100.00
54038;BME280;39954;48.844;9.726;2023-09-18T03:48:59;95464.03;;;17.47;100.00
54038;BME280;39954;48.844;9.726;2023-09-18T03:50:06;95456.03;;;17.39;100.00
54038;BME280;39954;48.844;9.726;2023-09-18T03:51:08;95449.44;;;17.35;100.00
54038;BME280;39954;48.844;9.726;2023-09-18T03:52:18;95456.22;;;17.28;100.00
54038;BME280;39954;48.844;9.726;2023-09-18T03:53:23;95445.88;;;17.26;100.00
54038;BME280;39954;48.844;9.726;2023-09-18T03:54:28;95452.22;;;17.23;100.00
54038;BME280;39954;48.844;9.726;2023-09-18T03:55:30;95448.09;;;17.21;100.00
54038;BME280;39954;48.844;9.726;2023-09-18T03:56:35;95448.50;;;17.16;100.00
54038;BME280;39954;48.844;9.726;2023-09-18T03:57:39;95455.72;;;17.14;100.00
54038;BME280;39954;48.844;9.726;2023-09-18T03:58:46;95455.59;;;17.06;100.00
54038;BME280;39954;48.844;9.726;2023-09-18T03:59:52;95458.34;;;17.05;100.00
54038;BME280;39954;48.844;9.726;2023-09-18T04:00:57;95466.75;;;17.08;100.00
54038;BME280;39954;48.844;9.726;2023-09-18T04:01:59;95467.88;;;17.15;100.00
54038;BME280;39954;48.844;9.726;2023-09-18T04:03:04;95468.41;;;17.19;100.00
54038;BME280;39954;48.844;9.726;2023-09-18T04:04:07;95471.84;;;17.29;100.00
54038;BME280;39954;48.844;9.726;2023-09-18T04:05:12;95485.31;;;17.44;100.00
54038;BME280;39954;48.844;9.726;2023-09-18T04:06:15;95490.28;;;17.47;100.00
54038;BME280;39954;48.844;9.726;2023-09-18T04:07:22;95486.53;;;17.59;100.00
54038;BME280;39954;48.844;9.726;2023-09-18T04:08:24;95503.41;;;17.57;100.00
54038;BME280;39954;48.844;9.726;2023-09-18T04:09:29;95502.56;;;17.56;100.00
54038;BME280;39954;48.844;9.726;2023-09-18T04:10:31;95516.66;;;17.55;100.00
54038;BME280;39954;48.844;9.726;2023-09-18T04:11:36;95521.63;;;17.58;100.00
54038;BME280;39954;48.844;9.726;2023-09-18T04:12:39;95535.47;;;17.60;100.00
54038;BME280;39954;48.844;9.726;2023-09-18T04:13:46;95541.53;;;17.61;100.00
54038;BME280;39954;48.844;9.726;2023-09-18T04:14:48;95544.03;;;17.62;100.00
54038;BME280;39954;48.844;9.726;2023-09-18T04:15:53;95547.88;;;17.68;100.00
54038;BME280;39954;48.844;9.726;2023-09-18T04:16:59;95561.72;;;17.70;100.00
54038;BME280;39954;48.844;9.726;2023-09-18T04:18:04;95563.19;;;17.73;100.00
54038;BME280;39954;48.844;9.726;2023-09-18T04:19:07;95567.34;;;17.85;100.00
54038;BME280;39954;48.844;9.726;2023-09-18T04:20:12;95569.41;;;17.91;100.00
54038;BME280;39954;48.844;9.726;2023-09-18T04:21:15;95572.94;;;18.00;100.00
54038;BME280;39954;48.844;9.726;2023-09-18T04:22:19;95572.06;;;18.09;100.00
54038;BME280;39954;48.844;9.726;2023-09-18T04:23:23;95566.81;;;18.09;100.00
54038;BME280;39954;48.844;9.726;2023-09-18T04:24:29;95569.59;;;18.07;100.00
54038;BME280;39954;48.844;9.726;2023-09-18T04:25:33;95562.84;;;18.05;100.00
54038;BME280;39954;48.844;9.726;2023-09-18T04:26:38;95558.78;;;18.10;100.00
54038;BME280;39954;48.844;9.726;2023-09-18T04:27:41;95557.38;;;18.16;100.00
54038;BME280;39954;48.844;9.726;2023-09-18T04:28:49;95556.03;;;18.12;100.00
54038;BME280;39954;48.844;9.726;2023-09-18T04:29:51;95549.19;;;18.19;100.00
54038;BME280;39954;48.844;9.726;2023-09-18T04:30:56;95542.94;;;18.20;100.00
54038;BME280;39954;48.844;9.726;2023-09-18T04:31:58;95551.41;;;18.24;100.00
54038;BME280;39954;48.844;9.726;2023-09-18T04:33:06;95550.41;;;18.25;100.00
54038;BME280;39954;48.844;9.726;2023-09-18T04:34:08;95555.97;;;18.22;100.00
54038;BME280;39954;48.844;9.726;2023-09-18T04:35:13;95548.78;;;18.24;100.00
54038;BME280;39954;48.844;9.726;2023-09-18T04:36:16;95550.03;;;18.20;100.00
54038;BME280;39954;48.844;9.726;2023-09-18T04:37:21;95554.63;;;18.18;100.00
54038;BME280;39954;48.844;9.726;2023-09-18T04:38:23;95544.66;;;18.11;100.00
54038;BME280;39954;48.844;9.726;2023-09-18T04:39:28;95547.75;;;18.07;100.00
54038;BME280;39954;48.844;9.726;2023-09-18T04:40:32;95540.00;;;18.05;100.00
54038;BME280;39954;48.844;9.726;2023-09-18T04:41:37;95543.03;;;18.10;100.00
54038;BME280;39954;48.844;9.726;2023-09-18T04:42:41;95528.53;;;18.06;100.00
54038;BME280;39954;48.844;9.726;2023-09-18T04:43:46;95527.16;;;18.02;100.00
54038;BME280;39954;48.844;9.726;2023-09-18T04:44:50;95528.44;;;17.98;100.00
54038;BME280;39954;48.844;9.726;2023-09-18T04:45:55;95526.22;;;17.94;100.00
54038;BME280;39954;48.844;9.726;2023-09-18T04:46:58;95524.59;;;17.93;100.00
54038;BME280;39954;48.844;9.726;2023-09-18T04:48:04;95519.75;;;17.88;100.00
54038;BME280;39954;48.844;9.726;2023-09-18T04:49:07;95525.31;;;17.85;100.00
54038;BME280;39954;48.844;9.726;2023-09-18T04:50:12;95529.19;;;17.81;100.00
54038;BME280;39954;48.844;9.726;2023-09-18T04:51:17;95521.84;;;17.75;100.00
54038;BME280;39954;48.844;9.726;2023-09-18T04:52:22;95525.59;;;17.72;100.00
54038;BME280;39954;48.844;9.726;2023-09-18T04:53:24;95530.19;;;17.70;100.00
54038;BME280;39954;48.844;9.726;2023-09-18T04:54:30;95525.19;;;17.67;100.00
54038;BME280;39954;48.844;9.726;2023-09-18T04:55:32;95521.06;;;17.64;100.00
54038;BME280;39954;48.844;9.726;2023-09-18T04:56:37;95520.38;;;17.62;100.00
54038;BME280;39954;48.844;9.726;2023-09-18T04:57:39;95515.25;;;17.71;100.00
54038;BME280;39954;48.844;9.726;2023-09-18T04:58:44;95512.75;;;17.69;100.00
54038;BME280;39954;48.844;9.726;2023-09-18T04:59:46;95511.91;;;17.68;100.00
54038;BME280;39954;48.844;9.726;2023-09-18T05:01:08;95521.06;;;17.64;100.00
54038;BME280;39954;48.844;9.726;2023-09-18T05:02:13;95514.16;;;17.63;100.00
54038;BME280;39954;48.844;9.726;2023-09-18T05:03:18;95514.44;;;17.60;100.00
54038;BME280;39954;48.844;9.726;2023-09-18T05:04:21;95505.03;;;17.58;100.00
54038;BME280;39954;48.844;9.726;2023-09-18T05:05:26;95507.53;;;17.59;100.00
54038;BME280;39954;48.844;9.726;2023-09-18T05:06:28;95506.16;;;17.55;100.00
54038;BME280;39954;48.844;9.726;2023-09-18T05:07:34;95494.28;;;17.51;100.00
54038;BME280;39954;48.844;9.726;2023-09-18T05:08:36;95492.91;;;17.47;100.00
54038;BME280;39954;48.844;9.726;2023-09-18T05:09:38;95492.50;;;17.42;100.00
54038;BME280;39954;48.844;9.726;2023-09-18T05:10:43;95493.78;;;17.38;100.00
54038;BME280;39954;48.844;9.726;2023-09-18T05:11:45;95489.63;;;17.35;100.00
54038;BME280;39954;48.844;9.726;2023-09-18T05:12:51;95480.53;;;17.30;100.00
54038;BME280;39954;48.844;9.726;2023-09-18T05:14:00;95477.50;;;17.25;100.00
54038;BME280;39954;48.844;9.726;2023-09-18T05:15:07;95475.03;;;17.23;100.00
54038;BME280;39954;48.844;9.726;2023-09-18T05:16:14;95466.59;;;17.19;100.00
54038;BME280;39954;48.844;9.726;2023-09-18T05:17:19;95467.88;;;17.15;100.00
54038;BME280;39954;48.844;9.726;2023-09-18T05:18:21;95462.91;;;17.12;100.00
54038;BME280;39954;48.844;9.726;2023-09-18T05:19:26;95472.72;;;17.10;100.00
54038;BME280;39954;48.844;9.726;2023-09-18T05:20:29;95471.34;;;17.06;100.00
54038;BME280;39954;48.844;9.726;2023-09-18T05:21:34;95474.94;;;17.05;100.00
54038;BME280;39954;48.844;9.726;2023-09-18T05:22:36;95466.38;;;17.03;100.00
54038;BME280;39954;48.844;9.726;2023-09-18T05:23:41;95470.94;;;17.01;100.00
54038;BME280;39954;48.844;9.726;2023-09-18T05:24:43;95469.13;;;17.02;100.00
54038;BME280;39954;48.844;9.726;2023-09-18T05:25:50;95468.31;;;17.01;100.00
54038;BME280;39954;48.844;9.726;2023-09-18T05:26:52;95471.94;;;17.00;100.00
54038;BME280;39954;48.844;9.726;2023-09-18T05:27:58;95471.06;;;16.99;100.00
54038;BME280;39954;48.844;9.726;2023-09-18T05:29:01;95472.19;;;16.97;100.00
54038;BME280;39954;48.844;9.726;2023-09-18T05:30:08;95471.50;;;16.95;100.00
54038;BME280;39954;48.844;9.726;2023-09-18T05:31:10;95473.31;;;16.94;100.00
54038;BME280;39954;48.844;9.726;2023-09-18T05:32:19;95480.50;;;16.92;100.00
54038;BME280;39954;48.844;9.726;2023-09-18T05:33:21;95477.06;;;16.92;100.00
54038;BME280;39954;48.844;9.726;2023-09-18T05:34:26;95491.94;;;16.91;100.00
54038;BME280;39954;48.844;9.726;2023-09-18T05:35:28;95499.13;;;16.99;100.00
54038;BME280;39954;48.844;9.726;2023-09-18T05:36:33;95495.94;;;17.05;100.00
54038;BME280;39954;48.844;9.726;2023-09-18T05:37:36;95501.31;;;17.13;100.00